Time;durP1;ratioP1;P1;durP2;ratioP2;P2;SDS_P1;SDS_P2;PMS_P1;PMS_P2;Temp;Humidity;BMP_temperature;BMP_pressure;BME280_temperature;BME280_humidity;BME280_pressure;Samples;Min_cycle;Max_cycle;Signal;HPM_P1;HPM_P2
2022/09/08 00:00:10;;;;;;;0.20;0.20;;;8.50;99.90;;;;;;5086532;28;20501;-66
2022/09/08 00:02:37;;;;;;;0.13;0.13;;;8.60;99.90;;;;;;5086080;28;20127;-66
2022/09/08 00:05:06;;;;;;;1.48;0.10;;;8.50;99.90;;;;;;5068031;28;20063;-73
2022/09/08 00:07:35;;;;;;;0.10;0.10;;;8.50;99.90;;;;;;5084832;28;20042;-66
2022/09/08 00:10:03;;;;;;;0.98;0.30;;;8.50;99.90;;;;;;5076335;28;20208;-67
2022/09/08 00:12:30;;;;;;;0.70;0.30;;;8.50;99.90;;;;;;5084970;28;20135;-66
2022/09/08 00:15:00;;;;;;;0.20;0.20;;;8.50;99.90;;;;;;5086126;28;20054;-68
2022/09/08 00:17:27;;;;;;;0.30;0.30;;;8.50;99.90;;;;;;5071251;28;20053;-67
2022/09/08 00:19:54;;;;;;;0.30;0.17;;;8.40;99.90;;;;;;5084871;28;20046;-75
2022/09/08 00:22:21;;;;;;;0.20;0.20;;;8.40;99.90;;;;;;5082392;28;20040;-67
2022/09/08 00:24:48;;;;;;;1.48;0.88;;;8.40;99.90;;;;;;5085136;28;20048;-71
2022/09/08 00:27:15;;;;;;;0.13;0.13;;;8.40;99.90;;;;;;5083128;28;20149;-66
2022/09/08 00:29:42;;;;;;;1.45;0.10;;;8.40;99.90;;;;;;5085380;28;20059;-69
2022/09/08 00:32:09;;;;;;;1.55;0.20;;;8.40;99.90;;;;;;5084501;28;20054;-69
2022/09/08 00:34:36;;;;;;;0.22;0.10;;;8.40;99.90;;;;;;5078879;28;20113;-66
2022/09/08 00:37:03;;;;;;;0.20;0.20;;;8.40;99.90;;;;;;5084564;28;20036;-72
2022/09/08 00:39:30;;;;;;;1.65;0.15;;;8.40;99.90;;;;;;5081937;28;20066;-68
2022/09/08 00:41:57;;;;;;;0.28;0.10;;;8.30;99.90;;;;;;5085641;28;20044;-66
2022/09/08 00:44:41;;;;;;;0.28;0.28;;;8.30;99.90;;;;;;5093058;28;20048;-66
2022/09/08 00:47:34;;;;;;;2.15;0.30;;;8.30;99.90;;;;;;5068483;28;20050;-67
2022/09/08 00:50:24;;;;;;;0.57;0.40;;;8.20;99.90;;;;;;5093232;28;20059;-68
2022/09/08 00:53:00;;;;;;;0.50;0.38;;;8.20;99.90;;;;;;5092322;28;21170;-68
2022/09/08 00:55:32;;;;;;;0.30;0.28;;;8.20;99.90;;;;;;5087728;28;20121;-66
2022/09/08 00:57:59;;;;;;;0.40;0.40;;;8.10;99.90;;;;;;5089739;28;20087;-66
2022/09/08 01:00:26;;;;;;;0.68;0.35;;;8.20;99.90;;;;;;5090261;28;20127;-68
2022/09/08 01:02:53;;;;;;;0.38;0.25;;;8.10;99.90;;;;;;5089580;28;20044;-73
2022/09/08 01:05:30;;;;;;;1.70;0.40;;;8.20;99.90;;;;;;5087669;28;20048;-67
2022/09/08 01:14:01;;;;;;;0.28;0.28;;;8.20;99.90;;;;;;5087553;28;20054;-66
2022/09/08 01:16:28;;;;;;;0.90;0.20;;;8.20;99.90;;;;;;5088495;28;20044;-67
2022/09/08 01:18:56;;;;;;;0.40;0.32;;;8.30;99.90;;;;;;5088987;28;20682;-66
2022/09/08 01:21:34;;;;;;;0.65;0.40;;;8.30;99.90;;;;;;5095524;28;20556;-68
2022/09/08 01:24:34;;;;;;;1.27;0.20;;;8.40;99.90;;;;;;5088892;28;20055;-69
2022/09/08 01:27:11;;;;;;;0.15;0.15;;;8.40;99.90;;;;;;5077091;28;20058;-75
2022/09/08 01:29:41;;;;;;;0.57;0.30;;;8.50;99.90;;;;;;5079521;28;20519;-69
2022/09/08 01:32:10;;;;;;;0.50;0.30;;;8.50;99.90;;;;;;5079407;28;20384;-69
2022/09/08 01:34:39;;;;;;;0.20;0.20;;;8.60;99.90;;;;;;5095761;28;20123;-66
2022/09/08 01:37:06;;;;;;;0.30;0.28;;;8.70;99.90;;;;;;5101231;28;20501;-66
2022/09/08 01:39:33;;;;;;;0.20;0.20;;;8.80;99.90;;;;;;5087632;28;20056;-71
2022/09/08 01:42:00;;;;;;;0.20;0.17;;;8.80;99.90;;;;;;5088407;28;20062;-70
2022/09/08 01:44:28;;;;;;;0.10;0.10;;;8.90;99.90;;;;;;5089438;28;20146;-66
2022/09/08 01:46:55;;;;;;;3.10;0.40;;;9.00;99.90;;;;;;5088835;28;20043;-66
2022/09/08 01:49:22;;;;;;;1.85;0.30;;;9.00;99.90;;;;;;5092427;28;20054;-67
2022/09/08 01:51:49;;;;;;;0.55;0.17;;;9.10;99.90;;;;;;5092472;28;20048;-68
2022/09/08 01:54:16;;;;;;;0.75;0.40;;;9.10;99.90;;;;;;5088822;28;20379;-68
2022/09/08 01:56:43;;;;;;;0.30;0.28;;;9.20;99.90;;;;;;5086256;28;20054;-74
2022/09/08 01:59:10;;;;;;;0.85;0.40;;;9.30;99.90;;;;;;5090806;28;20061;-67
2022/09/08 02:01:37;;;;;;;1.02;0.50;;;9.30;99.90;;;;;;5097130;28;20311;-71
2022/09/08 02:04:05;;;;;;;0.55;0.30;;;9.40;99.90;;;;;;5099790;28;20036;-66
2022/09/08 02:06:31;;;;;;;0.50;0.35;;;9.50;99.90;;;;;;5088929;28;20083;-68
2022/09/08 02:08:58;;;;;;;0.28;0.28;;;9.50;99.90;;;;;;5089751;28;20458;-66
2022/09/08 02:11:25;;;;;;;0.47;0.20;;;9.60;99.90;;;;;;5086838;28;20048;-66
2022/09/08 02:13:52;;;;;;;1.10;0.28;;;9.60;99.90;;;;;;5086400;28;20032;-70
2022/09/08 02:16:19;;;;;;;0.20;0.20;;;9.70;99.90;;;;;;5086120;28;20050;-68
2022/09/08 02:18:46;;;;;;;0.43;0.30;;;9.70;99.90;;;;;;5091171;28;20040;-73
2022/09/08 02:21:17;;;;;;;0.10;0.10;;;9.70;99.90;;;;;;5075923;28;20050;-68
2022/09/08 02:23:47;;;;;;;0.70;0.40;;;9.80;99.90;;;;;;5091809;28;20496;-67
2022/09/08 02:26:24;;;;;;;1.58;0.20;;;9.80;99.90;;;;;;5073249;28;20055;-67
2022/09/08 02:28:52;;;;;;;0.70;0.30;;;9.80;99.90;;;;;;5080858;28;20101;-66
2022/09/08 02:31:20;;;;;;;0.90;0.40;;;9.80;99.90;;;;;;5079595;28;20652;-68
2022/09/08 02:33:47;;;;;;;0.63;0.38;;;9.80;99.90;;;;;;5087930;28;20047;-66
2022/09/08 02:36:15;;;;;;;0.20;0.20;;;9.80;99.90;;;;;;5088841;28;20369;-66
2022/09/08 02:38:42;;;;;;;0.52;0.30;;;9.80;99.90;;;;;;5087030;28;20040;-70
2022/09/08 02:41:09;;;;;;;0.75;0.20;;;9.90;99.90;;;;;;5086057;28;20210;-67
2022/09/08 02:43:36;;;;;;;0.15;0.15;;;9.90;99.90;;;;;;5087755;28;20318;-66
2022/09/08 02:46:05;;;;;;;0.55;0.30;;;9.90;99.90;;;;;;5085410;28;20062;-67
2022/09/08 02:48:33;;;;;;;0.30;0.30;;;9.80;99.90;;;;;;5086603;28;20043;-66
2022/09/08 02:51:01;;;;;;;0.70;0.55;;;9.80;99.90;;;;;;5088475;28;20064;-72
2022/09/08 02:53:29;;;;;;;0.25;0.20;;;9.70;99.90;;;;;;5080748;28;20524;-67
2022/09/08 02:55:58;;;;;;;0.50;0.32;;;9.70;99.90;;;;;;5088124;28;20138;-66
2022/09/08 02:58:25;;;;;;;0.30;0.10;;;9.70;99.90;;;;;;5087953;28;20136;-70
2022/09/08 03:00:52;;;;;;;0.55;0.55;;;9.60;99.90;;;;;;5074896;28;20154;-67
2022/09/08 03:03:21;;;;;;;1.40;0.22;;;9.50;99.90;;;;;;5084431;28;20036;-66
2022/09/08 03:05:49;;;;;;;1.52;0.30;;;9.50;99.90;;;;;;5088356;28;20119;-69
2022/09/08 03:08:16;;;;;;;0.40;0.40;;;9.40;99.90;;;;;;5086146;28;20124;-66
2022/09/08 03:10:44;;;;;;;0.20;0.20;;;9.40;99.90;;;;;;5087526;28;20048;-67
2022/09/08 03:13:11;;;;;;;0.20;0.20;;;9.30;99.90;;;;;;5083469;28;20515;-76
2022/09/08 03:15:38;;;;;;;0.65;0.13;;;9.30;99.90;;;;;;5086942;28;20083;-79
2022/09/08 03:18:05;;;;;;;0.47;0.30;;;9.20;99.90;;;;;;5073254;28;20044;-69
2022/09/08 03:20:34;;;;;;;0.20;0.20;;;9.20;99.90;;;;;;5087609;28;20071;-66
2022/09/08 03:23:01;;;;;;;0.32;0.32;;;9.10;99.90;;;;;;5077298;28;20040;-67
2022/09/08 03:25:29;;;;;;;0.30;0.30;;;9.10;99.90;;;;;;5069248;28;20060;-66
2022/09/08 03:27:56;;;;;;;0.65;0.40;;;9.10;99.90;;;;;;5077406;28;20050;-73
2022/09/08 03:30:23;;;;;;;0.35;0.32;;;9.00;99.90;;;;;;5084577;28;20042;-66
2022/09/08 03:32:50;;;;;;;0.93;0.30;;;8.90;99.90;;;;;;5085166;28;20122;-69
2022/09/08 03:35:18;;;;;;;0.73;0.43;;;8.90;99.90;;;;;;5084531;28;20044;-69
2022/09/08 03:37:45;;;;;;;2.95;0.30;;;8.80;99.90;;;;;;5086375;28;20051;-68
2022/09/08 03:40:15;;;;;;;0.88;0.25;;;8.80;99.90;;;;;;5086648;28;20040;-66
2022/09/08 03:42:44;;;;;;;0.40;0.20;;;8.70;99.90;;;;;;5086154;28;20048;-73
2022/09/08 03:45:14;;;;;;;0.85;0.73;;;8.70;99.90;;;;;;5084789;28;20046;-73
2022/09/08 03:47:42;;;;;;;0.35;0.35;;;8.60;99.90;;;;;;5085018;28;20131;-78
2022/09/08 03:50:14;;;;;;;1.95;0.40;;;8.60;99.90;;;;;;5074796;28;20127;-68
2022/09/08 03:52:41;;;;;;;1.45;0.20;;;8.60;99.90;;;;;;5086115;28;20155;-69
2022/09/08 03:55:08;;;;;;;1.27;0.30;;;8.60;99.90;;;;;;5075397;28;20040;-68
2022/09/08 03:57:36;;;;;;;1.20;0.30;;;8.50;99.90;;;;;;5084386;28;20036;-66
2022/09/08 04:00:07;;;;;;;0.70;0.40;;;8.50;99.90;;;;;;5086591;28;20044;-70
2022/09/08 04:02:40;;;;;;;1.42;0.40;;;8.50;99.90;;;;;;5074378;28;20138;-76
2022/09/08 04:05:08;;;;;;;0.63;0.40;;;8.50;99.90;;;;;;5072930;28;20060;-66
2022/09/08 04:07:35;;;;;;;0.68;0.43;;;8.50;99.90;;;;;;5082790;28;20452;-66
2022/09/08 04:10:03;;;;;;;1.25;0.60;;;8.50;99.90;;;;;;5085514;28;20485;-68
2022/09/08 04:12:39;;;;;;;0.32;0.30;;;8.50;99.90;;;;;;5074064;28;20044;-67
2022/09/08 04:15:08;;;;;;;0.43;0.43;;;8.40;99.90;;;;;;5085913;28;20040;-66
2022/09/08 04:17:36;;;;;;;0.43;0.40;;;8.40;99.90;;;;;;5079221;28;20493;-69
2022/09/08 04:20:03;;;;;;;0.52;0.40;;;8.40;99.90;;;;;;5079819;28;20237;-69
2022/09/08 04:22:30;;;;;;;0.70;0.43;;;8.40;99.90;;;;;;5085526;28;20040;-67
2022/09/08 04:24:57;;;;;;;1.60;0.40;;;8.40;99.90;;;;;;5085464;28;20481;-65
2022/09/08 04:27:25;;;;;;;2.95;0.45;;;8.40;99.90;;;;;;5083787;28;20051;-68
2022/09/08 04:29:51;;;;;;;0.65;0.43;;;8.50;99.90;;;;;;5085981;28;20039;-66
2022/09/08 04:32:19;;;;;;;1.17;1.08;;;8.40;99.90;;;;;;5085582;28;20044;-65
2022/09/08 04:34:52;;;;;;;0.60;0.40;;;8.50;99.90;;;;;;5085831;28;20036;-68
2022/09/08 04:37:20;;;;;;;0.50;0.20;;;8.50;99.90;;;;;;5077375;28;20072;-72
2022/09/08 04:39:50;;;;;;;1.67;0.40;;;8.50;99.90;;;;;;5072297;28;20040;-67
2022/09/08 04:42:17;;;;;;;7.20;0.82;;;8.50;99.90;;;;;;5085550;28;20503;-67
2022/09/08 04:44:44;;;;;;;1.98;0.38;;;8.50;99.90;;;;;;5085817;28;20046;-69
2022/09/08 04:47:12;;;;;;;0.57;0.50;;;8.60;99.90;;;;;;5083489;28;20040;-67
2022/09/08 04:49:38;;;;;;;1.15;0.73;;;8.60;99.90;;;;;;5085128;28;20365;-69
2022/09/08 04:52:05;;;;;;;0.93;0.82;;;8.60;99.90;;;;;;5078307;28;20447;-68
2022/09/08 04:54:32;;;;;;;0.60;0.60;;;8.70;99.90;;;;;;5084936;28;20422;-71
2022/09/08 04:56:59;;;;;;;0.80;0.80;;;8.70;99.90;;;;;;5084244;28;20815;-70
2022/09/08 04:59:27;;;;;;;7.30;1.10;;;8.70;99.90;;;;;;5082071;28;20449;-77
2022/09/08 05:01:55;;;;;;;1.10;0.82;;;8.70;99.90;;;;;;5077473;28;20113;-66
2022/09/08 05:04:22;;;;;;;1.02;1.02;;;8.70;99.90;;;;;;5086307;28;20044;-65
2022/09/08 05:06:49;;;;;;;0.63;0.63;;;8.70;99.90;;;;;;5085000;28;20048;-67
2022/09/08 05:09:16;;;;;;;0.75;0.50;;;8.70;99.90;;;;;;5075750;28;20071;-69
2022/09/08 05:11:43;;;;;;;1.85;0.30;;;8.70;99.90;;;;;;5084080;28;20046;-69
2022/09/08 05:14:10;;;;;;;1.02;0.70;;;8.70;99.90;;;;;;5084976;28;20039;-68
2022/09/08 05:16:37;;;;;;;1.88;0.38;;;8.80;99.90;;;;;;5087082;28;20040;-69
2022/09/08 05:19:05;;;;;;;4.65;1.45;;;8.80;99.90;;;;;;5087383;28;20468;-68
2022/09/08 05:21:34;;;;;;;2.28;0.65;;;8.80;99.90;;;;;;5084822;28;20037;-73
2022/09/08 05:24:02;;;;;;;1.42;0.52;;;8.90;99.90;;;;;;5078825;28;20048;-67
2022/09/08 05:26:29;;;;;;;0.60;0.47;;;8.90;99.90;;;;;;5082111;28;20414;-66
2022/09/08 05:28:57;;;;;;;2.15;1.90;;;8.90;99.90;;;;;;5082450;28;20162;-66
2022/09/08 05:31:27;;;;;;;1.63;0.55;;;9.00;99.90;;;;;;5085533;28;20143;-68
2022/09/08 05:33:57;;;;;;;0.52;0.32;;;9.00;99.90;;;;;;5084882;28;20072;-68
2022/09/08 05:36:30;;;;;;;3.35;0.68;;;9.10;99.90;;;;;;5086141;28;20040;-67
2022/09/08 05:38:57;;;;;;;0.77;0.70;;;9.10;99.90;;;;;;5089698;28;20047;-73
2022/09/08 05:41:24;;;;;;;3.60;0.70;;;9.20;99.90;;;;;;5085703;28;20046;-73
2022/09/08 05:43:55;;;;;;;1.75;0.50;;;9.30;99.90;;;;;;5089755;28;20458;-65
2022/09/08 05:46:27;;;;;;;4.22;0.63;;;9.30;99.90;;;;;;5086331;28;20058;-72
2022/09/08 05:49:00;;;;;;;1.60;0.93;;;9.40;99.90;;;;;;5089950;28;20192;-65
2022/09/08 05:51:27;;;;;;;1.23;0.80;;;9.50;99.90;;;;;;5086192;28;20050;-68
2022/09/08 05:53:58;;;;;;;1.63;0.47;;;9.50;99.90;;;;;;5085298;28;20040;-67
2022/09/08 05:56:25;;;;;;;4.75;0.88;;;9.60;99.90;;;;;;5078430;28;20053;-69
2022/09/08 05:58:57;;;;;;;2.95;0.90;;;9.70;99.90;;;;;;5090952;28;20053;-65
2022/09/08 06:01:31;;;;;;;0.63;0.47;;;9.70;99.90;;;;;;5073098;28;20040;-70
2022/09/08 06:03:59;;;;;;;0.70;0.70;;;9.80;99.90;;;;;;5086678;28;20134;-66
2022/09/08 06:06:30;;;;;;;3.28;0.75;;;9.90;99.90;;;;;;5087014;28;20375;-69
2022/09/08 06:09:00;;;;;;;;;;;10.00;99.90;;;;;;5088249;28;20369;-65
2022/09/08 06:11:29;;;;;;;6.80;1.75;;;10.00;99.90;;;;;;5072721;28;20243;-69
2022/09/08 06:13:56;;;;;;;1.40;0.52;;;10.20;99.90;;;;;;5085825;28;20378;-65
2022/09/08 06:16:24;;;;;;;1.55;0.57;;;10.30;99.90;;;;;;5085189;28;20040;-66
2022/09/08 06:18:51;;;;;;;0.60;0.50;;;10.40;99.90;;;;;;5086510;28;20095;-67
2022/09/08 06:21:21;;;;;;;0.65;0.45;;;10.50;99.90;;;;;;5085203;28;20047;-68
2022/09/08 06:23:50;;;;;;;2.30;0.50;;;10.60;99.90;;;;;;5073675;28;20095;-68
2022/09/08 06:26:49;;;;;;;3.05;0.80;;;10.70;99.90;;;;;;5085855;28;20040;-68
2022/09/08 06:29:30;;;;;;;7.95;1.02;;;10.80;99.90;;;;;;5076790;28;20147;-71
2022/09/08 06:32:26;;;;;;;1.35;0.60;;;10.90;99.90;;;;;;5085612;28;20046;-73
2022/09/08 06:35:09;;;;;;;1.85;0.52;;;11.00;99.90;;;;;;5085410;28;20044;-66
2022/09/08 06:37:51;;;;;;;1.27;0.50;;;11.20;99.90;;;;;;5084113;28;20051;-67
2022/09/08 06:40:40;;;;;;;0.77;0.30;;;11.40;99.90;;;;;;5086214;28;20051;-75
2022/09/08 06:43:16;;;;;;;0.80;0.50;;;11.60;99.90;;;;;;5086054;28;20143;-75
2022/09/08 06:45:47;;;;;;;0.57;0.30;;;11.70;99.90;;;;;;5084191;28;20052;-68
2022/09/08 06:48:14;;;;;;;7.57;0.45;;;11.80;99.90;;;;;;5086344;28;20139;-69
2022/09/08 06:51:11;;;;;;;1.80;0.60;;;12.00;99.90;;;;;;5086334;28;20676;-67
2022/09/08 06:53:57;;;;;;;0.30;0.30;;;12.10;99.90;;;;;;5079723;28;20377;-68
2022/09/08 06:56:31;;;;;;;2.75;0.38;;;12.20;99.90;;;;;;5086403;28;20040;-67
2022/09/08 06:59:18;;;;;;;0.15;0.15;;;12.40;99.90;;;;;;5079575;28;20052;-65
2022/09/08 07:02:16;;;;;;;0.20;0.20;;;12.50;99.90;;;;;;5086170;28;20701;-71
2022/09/08 07:04:48;;;;;;;0.45;0.20;;;12.60;99.90;;;;;;5073041;28;20180;-65
2022/09/08 07:07:24;;;;;;;0.60;0.20;;;12.70;99.90;;;;;;5077230;28;20070;-65
2022/09/08 07:10:04;;;;;;;0.65;0.40;;;12.90;99.90;;;;;;5085169;28;20043;-66
2022/09/08 07:12:42;;;;;;;;;;;13.00;99.90;;;;;;5085840;28;20047;-64
2022/09/08 07:15:21;;;;;;;1.05;0.30;;;13.00;99.90;;;;;;5081531;28;19920;-68
2022/09/08 07:17:58;;;;;;;1.70;0.20;;;13.10;99.90;;;;;;5086547;28;20089;-65
2022/09/08 07:20:27;;;;;;;0.20;0.15;;;13.20;99.90;;;;;;5083984;28;20108;-65
2022/09/08 07:23:08;;;;;;;1.83;0.75;;;13.30;99.90;;;;;;5085698;28;20117;-69
2022/09/08 07:25:46;;;;;;;0.40;0.32;;;13.40;99.90;;;;;;5083605;28;20044;-66
2022/09/08 07:28:20;;;;;;;1.23;0.25;;;13.50;99.90;;;;;;5085296;28;20068;-69
2022/09/08 07:31:00;;;;;;;1.13;0.40;;;13.50;99.90;;;;;;5077170;28;20517;-70
2022/09/08 07:33:44;;;;;;;0.20;0.20;;;13.50;99.90;;;;;;5081103;28;20457;-70
2022/09/08 07:36:36;;;;;;;0.50;0.10;;;13.70;99.90;;;;;;5084925;28;20381;-66
2022/09/08 07:39:19;;;;;;;0.10;0.10;;;13.80;99.90;;;;;;5084688;28;20048;-66
2022/09/08 07:41:53;;;;;;;1.55;0.25;;;13.90;99.90;;;;;;5084124;28;20044;-68
2022/09/08 07:44:21;;;;;;;0.88;0.20;;;13.90;99.90;;;;;;5085095;28;20063;-64
2022/09/08 07:47:00;;;;;;;2.75;0.30;;;13.80;99.90;;;;;;5085309;28;20044;-66
2022/09/08 07:49:41;;;;;;;0.28;0.13;;;13.90;99.90;;;;;;5079140;28;20047;-65
2022/09/08 07:52:26;;;;;;;1.20;1.10;;;13.90;99.90;;;;;;5091349;28;20062;-66
2022/09/08 07:55:00;;;;;;;0.40;0.40;;;13.90;99.90;;;;;;5084027;28;20143;-66
2022/09/08 07:57:44;;;;;;;0.30;0.30;;;13.90;99.90;;;;;;5082740;28;20101;-65
2022/09/08 08:00:17;;;;;;;0.75;0.52;;;13.90;99.90;;;;;;5084576;28;20039;-71
2022/09/08 08:03:00;;;;;;;0.40;0.25;;;14.00;99.90;;;;;;5084641;28;20048;-67
2022/09/08 08:05:33;;;;;;;0.30;0.22;;;14.00;99.90;;;;;;5076775;28;20040;-67
2022/09/08 08:08:12;;;;;;;0.20;0.20;;;14.00;99.90;;;;;;5079683;28;20396;-65
2022/09/08 08:10:43;;;;;;;0.32;0.32;;;14.00;99.90;;;;;;5084585;28;20071;-68
2022/09/08 08:13:10;;;;;;;0.50;0.32;;;14.00;99.90;;;;;;5082797;28;20080;-69
2022/09/08 08:16:06;;;;;;;0.30;0.30;;;14.00;99.90;;;;;;5084752;28;20047;-66
2022/09/08 08:18:43;;;;;;;1.42;0.30;;;13.90;99.90;;;;;;5084020;28;20512;-67
2022/09/08 08:21:22;;;;;;;0.57;0.32;;;13.90;99.90;;;;;;5080274;28;20328;-66
2022/09/08 08:23:58;;;;;;;0.30;0.30;;;13.80;99.90;;;;;;5071635;28;20048;-67
2022/09/08 08:26:52;;;;;;;0.70;0.25;;;13.80;99.90;;;;;;5084959;28;20091;-65
2022/09/08 08:29:36;;;;;;;0.40;0.40;;;13.70;99.90;;;;;;5082653;28;20062;-67
2022/09/08 08:32:12;;;;;;;0.52;0.30;;;13.70;99.90;;;;;;5080383;28;20044;-67
2022/09/08 08:35:18;;;;;;;7.32;1.27;;;13.60;99.90;;;;;;5080502;28;20047;-74
2022/09/08 08:37:49;;;;;;;0.77;0.65;;;13.60;99.90;;;;;;5090477;28;20057;-67
2022/09/08 08:40:44;;;;;;;1.80;0.77;;;13.50;99.90;;;;;;5083577;28;20165;-67
2022/09/08 08:43:28;;;;;;;0.80;0.80;;;13.50;99.90;;;;;;5071596;28;20044;-65
2022/09/08 08:46:07;;;;;;;6.03;1.02;;;13.50;99.90;;;;;;5081735;28;20357;-71
2022/09/08 08:49:01;;;;;;;2.35;0.70;;;13.40;99.90;;;;;;5084293;28;20051;-73
2022/09/08 08:52:03;;;;;;;2.40;0.68;;;13.40;99.90;;;;;;5078391;28;20123;-65
2022/09/08 08:54:42;;;;;;;2.53;0.68;;;13.40;99.90;;;;;;5073084;28;20461;-65
2022/09/08 08:57:39;;;;;;;0.80;0.70;;;13.40;99.90;;;;;;5081495;28;20117;-65
2022/09/08 09:00:19;;;;;;;1.17;0.50;;;13.30;99.90;;;;;;5082801;28;20473;-68
2022/09/08 09:03:13;;;;;;;0.45;0.38;;;13.30;99.90;;;;;;5084153;28;20036;-64
2022/09/08 09:05:43;;;;;;;2.92;0.70;;;13.30;99.90;;;;;;5082017;28;20067;-64
2022/09/08 09:08:36;;;;;;;0.82;0.60;;;13.40;99.90;;;;;;5084455;28;20333;-65
2022/09/08 09:11:21;;;;;;;0.93;0.50;;;13.40;99.90;;;;;;5085442;28;20392;-67
2022/09/08 09:14:23;;;;;;;1.55;0.82;;;13.40;99.90;;;;;;5085894;28;20040;-67
2022/09/08 09:16:50;;;;;;;2.58;0.60;;;13.40;99.90;;;;;;5088083;28;20130;-68
2022/09/08 09:19:17;;;;;;;2.70;0.60;;;13.40;99.90;;;;;;5084925;28;20047;-67
2022/09/08 09:22:12;;;;;;;0.95;0.55;;;13.40;99.90;;;;;;5088104;28;20147;-67
2022/09/08 09:25:08;;;;;;;3.40;0.50;;;13.40;99.90;;;;;;5089576;28;20065;-69
2022/09/08 09:28:00;;;;;;;0.70;0.70;;;13.40;99.90;;;;;;5085520;28;20058;-65
2022/09/08 09:30:42;;;;;;;0.93;0.70;;;13.50;99.90;;;;;;5085895;28;20040;-65
2022/09/08 09:33:39;;;;;;;1.10;0.47;;;13.60;99.90;;;;;;5085228;28;20048;-67
2022/09/08 09:36:25;;;;;;;0.50;0.50;;;13.70;99.90;;;;;;5068246;28;20347;-66
2022/09/08 09:39:21;;;;;;;1.38;0.65;;;13.80;99.90;;;;;;5085312;28;20039;-65
2022/09/08 09:42:15;;;;;;;4.32;0.57;;;14.00;99.90;;;;;;5080939;28;20438;-70
2022/09/08 09:44:45;;;;;;;0.80;0.65;;;14.00;99.90;;;;;;5086268;28;20359;-65
2022/09/08 09:47:55;;;;;;;0.83;0.50;;;14.20;99.90;;;;;;5085682;28;20068;-71
2022/09/08 09:51:00;;;;;;;0.40;0.40;;;14.30;99.90;;;;;;5087224;28;20305;-67
2022/09/08 09:53:33;;;;;;;0.65;0.63;;;14.50;99.90;;;;;;5082072;28;20139;-68
2022/09/08 09:56:23;;;;;;;2.03;1.15;;;14.60;99.90;;;;;;5082841;28;20040;-64
2022/09/08 09:59:12;;;;;;;3.70;0.80;;;14.70;99.90;;;;;;5084382;28;20054;-67
2022/09/08 10:01:52;;;;;;;0.75;0.73;;;14.70;99.90;;;;;;5088942;28;20093;-67
2022/09/08 10:04:46;;;;;;;1.92;1.10;;;14.70;99.90;;;;;;5093902;28;20707;-65
2022/09/08 10:07:22;;;;;;;0.60;0.50;;;14.80;99.90;;;;;;5087624;28;20454;-68
2022/09/08 10:10:20;;;;;;;1.25;0.93;;;14.80;99.90;;;;;;5094824;28;20059;-68
2022/09/08 10:13:24;;;;;;;0.98;0.95;;;14.90;99.90;;;;;;5080903;28;20525;-69
2022/09/08 10:16:03;;;;;;;1.70;0.52;;;15.00;99.90;;;;;;5088807;28;20044;-76
2022/09/08 10:19:07;;;;;;;0.50;0.50;;;15.10;99.90;;;;;;5089773;28;20040;-67
2022/09/08 10:22:02;;;;;;;0.63;0.50;;;15.10;99.90;;;;;;5045121;28;20543;-67
2022/09/08 10:25:03;;;;;;;1.08;0.80;;;15.30;99.90;;;;;;5064880;28;20502;-70
2022/09/08 10:27:45;;;;;;;0.85;0.82;;;15.40;99.90;;;;;;5081250;28;20044;-66
2022/09/08 10:30:30;;;;;;;11.30;1.65;;;15.80;99.90;;;;;;5087064;28;20044;-68
2022/09/08 10:33:06;;;;;;;0.77;0.52;;;16.20;99.90;;;;;;5087433;28;20068;-71
2022/09/08 10:35:47;;;;;;;0.70;0.70;;;16.70;99.90;;;;;;5084107;28;20143;-68
2022/09/08 10:38:47;;;;;;;0.60;0.60;;;17.10;99.90;;;;;;5085727;28;20520;-73
2022/09/08 10:41:21;;;;;;;;;;;17.40;99.90;;;;;;5085897;28;20458;-67
2022/09/08 10:44:13;;;;;;;2.05;0.88;;;17.50;99.90;;;;;;5084020;28;19985;-71
2022/09/08 10:47:36;;;;;;;2.72;0.95;;;17.60;99.90;;;;;;5090037;28;20452;-71
2022/09/08 10:50:12;;;;;;;2.92;0.77;;;17.50;99.90;;;;;;5085204;28;20480;-67
2022/09/08 10:52:51;;;;;;;2.13;1.17;;;17.40;99.90;;;;;;5085010;28;20059;-69
2022/09/08 10:55:27;;;;;;;3.35;0.85;;;17.40;99.90;;;;;;5080867;28;20055;-68
2022/09/08 10:58:12;;;;;;;0.80;0.80;;;17.30;99.90;;;;;;5086544;28;20125;-74
2022/09/08 11:00:58;;;;;;;0.63;0.63;;;17.20;99.90;;;;;;5084073;28;20159;-72
2022/09/08 11:03:27;;;;;;;1.65;0.90;;;17.10;99.90;;;;;;5080875;28;20715;-66
2022/09/08 11:06:08;;;;;;;1.95;0.60;;;16.90;99.90;;;;;;5085439;28;20040;-68
2022/09/08 11:08:41;;;;;;;0.55;0.55;;;16.70;99.90;;;;;;5085954;28;20790;-70
2022/09/08 11:11:10;;;;;;;1.00;0.90;;;16.70;99.90;;;;;;5092315;28;20101;-67
2022/09/08 11:14:15;;;;;;;1.48;1.10;;;16.80;99.90;;;;;;5086071;28;20056;-71
2022/09/08 11:16:54;;;;;;;0.80;0.60;;;17.00;99.90;;;;;;4981355;28;20141;-67
2022/09/08 11:19:21;;;;;;;1.83;0.77;;;17.00;99.90;;;;;;5073933;28;20040;-68
2022/09/08 11:22:10;;;;;;;0.73;0.70;;;17.30;99.90;;;;;;5085967;28;20044;-69
2022/09/08 11:25:02;;;;;;;0.88;0.75;;;17.40;99.90;;;;;;5087406;28;20048;-67
2022/09/08 11:27:54;;;;;;;0.93;0.88;;;17.30;99.90;;;;;;5082820;28;20040;-69
2022/09/08 11:30:23;;;;;;;1.23;0.88;;;17.40;99.90;;;;;;5082623;28;20198;-65
2022/09/08 11:33:27;;;;;;;2.90;1.63;;;17.40;99.90;;;;;;5083385;28;20044;-66
2022/09/08 11:36:22;;;;;;;0.65;0.65;;;17.30;99.90;;;;;;5067059;28;20080;-74
2022/09/08 11:38:55;;;;;;;0.80;0.80;;;17.00;99.90;;;;;;5075740;28;20747;-71
2022/09/08 11:41:28;;;;;;;0.40;0.40;;;16.80;99.90;;;;;;5074079;28;20048;-66
2022/09/08 11:44:22;;;;;;;0.55;0.52;;;16.50;99.90;;;;;;5069604;28;20036;-67
2022/09/08 11:47:02;;;;;;;1.55;0.98;;;16.30;99.90;;;;;;5070023;28;20147;-70
2022/09/08 11:49:54;;;;;;;3.10;0.70;;;16.10;99.90;;;;;;5061535;28;20070;-69
2022/09/08 11:53:24;;;;;;;1.65;0.68;;;16.30;99.90;;;;;;5065031;28;20055;-66
2022/09/08 11:56:32;;;;;;;0.77;0.63;;;16.80;99.90;;;;;;5064667;28;20051;-68
2022/09/08 11:59:05;;;;;;;3.75;0.70;;;17.30;99.90;;;;;;5069836;28;20044;-65
2022/09/08 12:01:47;;;;;;;3.20;0.50;;;17.60;99.90;;;;;;5070300;28;20048;-66
2022/09/08 12:04:31;;;;;;;1.58;1.02;;;17.70;99.90;;;;;;5069024;28;20071;-68
2022/09/08 12:07:16;;;;;;;0.57;0.50;;;17.80;99.90;;;;;;5067722;28;20644;-71
2022/09/08 12:10:19;;;;;;;1.13;0.55;;;17.80;99.90;;;;;;5060523;28;20152;-70
2022/09/08 12:12:59;;;;;;;1.75;0.75;;;17.80;99.90;;;;;;5067078;28;20132;-66
2022/09/08 12:15:55;;;;;;;0.65;0.65;;;17.90;99.90;;;;;;5064180;28;20051;-72
2022/09/08 12:18:25;;;;;;;3.92;0.55;;;18.10;99.90;;;;;;5065307;28;20075;-65
2022/09/08 12:21:07;;;;;;;0.43;0.43;;;18.10;99.80;;;;;;5067063;28;20152;-66
2022/09/08 12:23:46;;;;;;;0.85;0.35;;;18.20;99.70;;;;;;5064565;28;20072;-70
2022/09/08 12:26:23;;;;;;;1.02;0.45;;;18.10;99.40;;;;;;5061818;28;20144;-70
2022/09/08 12:28:55;;;;;;;0.47;0.45;;;18.00;99.90;;;;;;5065218;28;20037;-65
2022/09/08 12:31:49;;;;;;;2.35;0.60;;;18.10;99.90;;;;;;5064162;28;20064;-70
2022/09/08 12:34:36;;;;;;;2.33;0.98;;;18.20;99.90;;;;;;5065237;28;20062;-68
2022/09/08 12:37:30;;;;;;;1.48;1.38;;;18.40;99.90;;;;;;5064827;28;21414;-66
2022/09/08 12:40:26;;;;;;;0.38;0.30;;;18.30;98.90;;;;;;5084855;28;20071;-67
2022/09/08 12:43:20;;;;;;;0.50;0.50;;;18.50;99.80;;;;;;5087334;28;20048;-70
2022/09/08 12:46:06;;;;;;;1.02;0.70;;;18.70;99.90;;;;;;5089862;28;20052;-67
2022/09/08 12:48:48;;;;;;;0.57;0.30;;;18.80;99.90;;;;;;5089124;28;20904;-72
2022/09/08 12:51:23;;;;;;;4.97;0.47;;;18.90;99.90;;;;;;5089085;28;20462;-75
2022/09/08 12:54:22;;;;;;;1.35;0.60;;;18.80;99.20;;;;;;5080538;28;20067;-74
2022/09/08 12:57:27;;;;;;;0.40;0.40;;;18.70;99.70;;;;;;5101475;28;20580;-68
2022/09/08 12:59:56;;;;;;;0.80;0.35;;;18.60;99.90;;;;;;5087444;28;20070;-68
2022/09/08 13:02:42;;;;;;;0.43;0.32;;;18.50;99.90;;;;;;5100851;28;20148;-69
2022/09/08 13:05:56;;;;;;;0.70;0.70;;;18.60;99.90;;;;;;5100713;28;20441;-69
2022/09/08 13:08:47;;;;;;;0.80;0.40;;;18.80;99.90;;;;;;5085973;28;20028;-68
2022/09/08 13:11:25;;;;;;;0.55;0.40;;;18.80;99.10;;;;;;5092379;28;20074;-68
2022/09/08 13:14:00;;;;;;;0.82;0.28;;;18.80;99.90;;;;;;5098199;28;20046;-67
2022/09/08 13:16:30;;;;;;;0.55;0.47;;;18.80;99.90;;;;;;5099709;28;20073;-72
2022/09/08 13:19:15;;;;;;;1.05;0.30;;;18.90;99.90;;;;;;5099904;28;20102;-68
2022/09/08 13:22:25;;;;;;;1.65;0.30;;;19.00;99.60;;;;;;5087476;28;20059;-70
2022/09/08 13:25:19;;;;;;;0.20;0.17;;;18.90;97.50;;;;;;5023802;28;20126;-71
2022/09/08 13:28:05;;;;;;;1.17;0.30;;;18.50;96.90;;;;;;5019509;28;20486;-67
2022/09/08 13:31:10;;;;;;;0.65;0.30;;;18.20;97.40;;;;;;5084122;28;20050;-67
2022/09/08 13:33:52;;;;;;;1.17;0.20;;;18.00;97.70;;;;;;5085504;28;20182;-67
2022/09/08 13:36:27;;;;;;;0.73;0.45;;;17.80;97.60;;;;;;5092201;28;20043;-69
2022/09/08 13:39:03;;;;;;;2.88;0.52;;;17.50;98.50;;;;;;5089832;28;20043;-72
2022/09/08 13:41:51;;;;;;;0.57;0.50;;;17.30;99.00;;;;;;5083094;28;20576;-67
2022/09/08 13:44:49;;;;;;;3.50;0.60;;;17.20;99.90;;;;;;5085097;28;20044;-69
2022/09/08 13:47:47;;;;;;;1.60;0.57;;;17.40;99.00;;;;;;5082321;28;20044;-66
2022/09/08 13:50:35;;;;;;;0.82;0.52;;;17.50;99.40;;;;;;5086442;28;20052;-69